sensor_id;sensor_type;location;lat;lon;timestamp;P1;durP1;ratioP1;P2;durP2;ratioP2
19605;SDS011;9950;50.168;8.210;2023-06-26T00:02:13;10.35;;;6.20;;
19605;SDS011;9950;50.168;8.210;2023-06-26T00:04:41;8.15;;;6.32;;
19605;SDS011;9950;50.168;8.210;2023-06-26T00:07:08;9.48;;;7.10;;
19605;SDS011;9950;50.168;8.210;2023-06-26T00:09:36;10.30;;;6.80;;
19605;SDS011;9950;50.168;8.210;2023-06-26T00:12:03;10.80;;;7.35;;
19605;SDS011;9950;50.168;8.210;2023-06-26T00:14:32;10.90;;;6.47;;
19605;SDS011;9950;50.168;8.210;2023-06-26T00:16:59;8.50;;;6.88;;
19605;SDS011;9950;50.168;8.210;2023-06-26T00:19:26;9.10;;;7.00;;
19605;SDS011;9950;50.168;8.210;2023-06-26T00:21:53;9.60;;;7.13;;
19605;SDS011;9950;50.168;8.210;2023-06-26T00:24:20;8.75;;;7.07;;
19605;SDS011;9950;50.168;8.210;2023-06-26T00:26:47;11.25;;;7.72;;
19605;SDS011;9950;50.168;8.210;2023-06-26T00:29:14;9.30;;;6.80;;
19605;SDS011;9950;50.168;8.210;2023-06-26T00:31:43;9.63;;;7.30;;
19605;SDS011;9950;50.168;8.210;2023-06-26T00:34:10;8.18;;;6.95;;
19605;SDS011;9950;50.168;8.210;2023-06-26T00:36:37;11.40;;;7.78;;
19605;SDS011;9950;50.168;8.210;2023-06-26T00:39:08;9.43;;;7.38;;
19605;SDS011;9950;50.168;8.210;2023-06-26T00:41:35;8.43;;;6.60;;
19605;SDS011;9950;50.168;8.210;2023-06-26T00:44:03;10.73;;;7.45;;
19605;SDS011;9950;50.168;8.210;2023-06-26T00:46:30;10.88;;;7.70;;
19605;SDS011;9950;50.168;8.210;2023-06-26T00:48:59;9.32;;;7.28;;
19605;SDS011;9950;50.168;8.210;2023-06-26T00:51:27;11.43;;;7.32;;
19605;SDS011;9950;50.168;8.210;2023-06-26T00:53:54;10.10;;;7.75;;
19605;SDS011;9950;50.168;8.210;2023-06-26T00:56:22;9.73;;;7.57;;
19605;SDS011;9950;50.168;8.210;2023-06-26T00:58:49;10.02;;;7.80;;
19605;SDS011;9950;50.168;8.210;2023-06-26T01:01:16;9.55;;;7.22;;
19605;SDS011;9950;50.168;8.210;2023-06-26T01:03:47;9.88;;;7.03;;
19605;SDS011;9950;50.168;8.210;2023-06-26T01:06:19;9.20;;;7.32;;
19605;SDS011;9950;50.168;8.210;2023-06-26T01:08:47;8.18;;;6.60;;
19605;SDS011;9950;50.168;8.210;2023-06-26T01:11:14;8.32;;;6.38;;
19605;SDS011;9950;50.168;8.210;2023-06-26T01:13:42;10.25;;;6.32;;
19605;SDS011;9950;50.168;8.210;2023-06-26T01:16:10;11.25;;;6.90;;
19605;SDS011;9950;50.168;8.210;2023-06-26T01:18:37;8.48;;;7.00;;
19605;SDS011;9950;50.168;8.210;2023-06-26T01:21:08;7.70;;;6.40;;
19605;SDS011;9950;50.168;8.210;2023-06-26T01:23:39;9.30;;;6.82;;
19605;SDS011;9950;50.168;8.210;2023-06-26T01:26:17;9.02;;;6.97;;
19605;SDS011;9950;50.168;8.210;2023-06-26T01:28:46;12.57;;;7.25;;
19605;SDS011;9950;50.168;8.210;2023-06-26T01:31:13;9.38;;;6.65;;
19605;SDS011;9950;50.168;8.210;2023-06-26T01:33:41;10.52;;;7.63;;
19605;SDS011;9950;50.168;8.210;2023-06-26T01:36:08;8.73;;;7.30;;
19605;SDS011;9950;50.168;8.210;2023-06-26T01:38:35;9.30;;;6.72;;
19605;SDS011;9950;50.168;8.210;2023-06-26T01:41:02;9.20;;;7.22;;
19605;SDS011;9950;50.168;8.210;2023-06-26T01:43:34;7.22;;;6.30;;
19605;SDS011;9950;50.168;8.210;2023-06-26T01:46:04;7.45;;;6.13;;
19605;SDS011;9950;50.168;8.210;2023-06-26T01:48:33;10.10;;;7.00;;
19605;SDS011;9950;50.168;8.210;2023-06-26T01:51:01;10.15;;;6.95;;
19605;SDS011;9950;50.168;8.210;2023-06-26T01:53:32;11.00;;;7.07;;
19605;SDS011;9950;50.168;8.210;2023-06-26T01:56:04;11.98;;;7.53;;
19605;SDS011;9950;50.168;8.210;2023-06-26T01:58:34;7.90;;;6.32;;
19605;SDS011;9950;50.168;8.210;2023-06-26T02:01:02;9.23;;;6.45;;
19605;SDS011;9950;50.168;8.210;2023-06-26T02:03:29;11.07;;;7.38;;
19605;SDS011;9950;50.168;8.210;2023-06-26T02:05:56;9.10;;;6.70;;
19605;SDS011;9950;50.168;8.210;2023-06-26T02:08:23;9.57;;;6.72;;
19605;SDS011;9950;50.168;8.210;2023-06-26T02:10:50;9.80;;;6.95;;
19605;SDS011;9950;50.168;8.210;2023-06-26T02:13:18;9.95;;;6.43;;
19605;SDS011;9950;50.168;8.210;2023-06-26T02:15:46;9.02;;;6.95;;
19605;SDS011;9950;50.168;8.210;2023-06-26T02:18:13;9.48;;;7.68;;
19605;SDS011;9950;50.168;8.210;2023-06-26T02:20:41;10.68;;;7.43;;
19605;SDS011;9950;50.168;8.210;2023-06-26T02:23:09;11.00;;;7.10;;
19605;SDS011;9950;50.168;8.210;2023-06-26T02:25:36;9.77;;;7.60;;
19605;SDS011;9950;50.168;8.210;2023-06-26T02:28:03;10.77;;;7.35;;
19605;SDS011;9950;50.168;8.210;2023-06-26T02:30:30;10.18;;;7.43;;
19605;SDS011;9950;50.168;8.210;2023-06-26T02:32:59;9.93;;;7.32;;
19605;SDS011;9950;50.168;8.210;2023-06-26T02:35:26;10.15;;;7.97;;
19605;SDS011;9950;50.168;8.210;2023-06-26T02:37:53;9.48;;;7.13;;
19605;SDS011;9950;50.168;8.210;2023-06-26T02:40:20;10.57;;;7.65;;
19605;SDS011;9950;50.168;8.210;2023-06-26T02:42:47;11.93;;;7.57;;
19605;SDS011;9950;50.168;8.210;2023-06-26T02:45:14;9.32;;;7.22;;
19605;SDS011;9950;50.168;8.210;2023-06-26T02:47:41;9.85;;;7.70;;
19605;SDS011;9950;50.168;8.210;2023-06-26T02:50:10;11.75;;;7.72;;
19605;SDS011;9950;50.168;8.210;2023-06-26T02:52:37;10.23;;;7.70;;
19605;SDS011;9950;50.168;8.210;2023-06-26T02:55:05;11.20;;;7.72;;
19605;SDS011;9950;50.168;8.210;2023-06-26T02:57:32;10.52;;;7.85;;
19605;SDS011;9950;50.168;8.210;2023-06-26T02:59:59;9.55;;;7.32;;
19605;SDS011;9950;50.168;8.210;2023-06-26T03:02:26;12.95;;;7.35;;
19605;SDS011;9950;50.168;8.210;2023-06-26T03:04:53;9.48;;;7.20;;
19605;SDS011;9950;50.168;8.210;2023-06-26T03:07:24;10.05;;;6.90;;
19605;SDS011;9950;50.168;8.210;2023-06-26T03:09:51;11.85;;;7.55;;
19605;SDS011;9950;50.168;8.210;2023-06-26T03:12:18;9.50;;;6.68;;
19605;SDS011;9950;50.168;8.210;2023-06-26T03:14:45;9.02;;;7.40;;
19605;SDS011;9950;50.168;8.210;2023-06-26T03:17:12;9.95;;;7.05;;
19605;SDS011;9950;50.168;8.210;2023-06-26T03:19:39;11.27;;;7.82;;
19605;SDS011;9950;50.168;8.210;2023-06-26T03:22:06;10.98;;;7.30;;
19605;SDS011;9950;50.168;8.210;2023-06-26T03:24:35;11.13;;;7.70;;
19605;SDS011;9950;50.168;8.210;2023-06-26T03:27:02;11.05;;;7.65;;
19605;SDS011;9950;50.168;8.210;2023-06-26T03:29:29;9.90;;;6.97;;
19605;SDS011;9950;50.168;8.210;2023-06-26T03:31:56;10.80;;;7.47;;
19605;SDS011;9950;50.168;8.210;2023-06-26T03:34:23;9.85;;;7.65;;
19605;SDS011;9950;50.168;8.210;2023-06-26T03:36:50;10.50;;;8.02;;
19605;SDS011;9950;50.168;8.210;2023-06-26T03:39:17;9.32;;;7.43;;
19605;SDS011;9950;50.168;8.210;2023-06-26T03:41:46;10.52;;;7.13;;
19605;SDS011;9950;50.168;8.210;2023-06-26T03:44:13;9.90;;;7.28;;
19605;SDS011;9950;50.168;8.210;2023-06-26T03:46:40;10.60;;;7.55;;
19605;SDS011;9950;50.168;8.210;2023-06-26T03:49:07;11.70;;;7.53;;
19605;SDS011;9950;50.168;8.210;2023-06-26T03:51:35;10.85;;;6.75;;
19605;SDS011;9950;50.168;8.210;2023-06-26T03:54:03;13.27;;;7.93;;
19605;SDS011;9950;50.168;8.210;2023-06-26T03:56:30;9.65;;;7.45;;
19605;SDS011;9950;50.168;8.210;2023-06-26T03:58:58;12.20;;;7.70;;
19605;SDS011;9950;50.168;8.210;2023-06-26T04:01:26;9.82;;;7.53;;
19605;SDS011;9950;50.168;8.210;2023-06-26T04:03:53;10.55;;;7.60;;
19605;SDS011;9950;50.168;8.210;2023-06-26T04:06:20;9.18;;;6.72;;
19605;SDS011;9950;50.168;8.210;2023-06-26T04:08:47;17.92;;;7.30;;
19605;SDS011;9950;50.168;8.210;2023-06-26T04:11:14;9.35;;;7.07;;
19605;SDS011;9950;50.168;8.210;2023-06-26T04:13:41;10.55;;;7.32;;
19605;SDS011;9950;50.168;8.210;2023-06-26T04:16:10;10.52;;;7.50;;
19605;SDS011;9950;50.168;8.210;2023-06-26T04:18:37;8.65;;;6.50;;
19605;SDS011;9950;50.168;8.210;2023-06-26T04:21:05;9.80;;;6.93;;
19605;SDS011;9950;50.168;8.210;2023-06-26T04:23:33;10.35;;;7.10;;
19605;SDS011;9950;50.168;8.210;2023-06-26T04:26:00;8.65;;;6.40;;
19605;SDS011;9950;50.168;8.210;2023-06-26T04:28:29;8.75;;;6.80;;
19605;SDS011;9950;50.168;8.210;2023-06-26T04:30:57;10.90;;;7.20;;
19605;SDS011;9950;50.168;8.210;2023-06-26T04:33:25;11.38;;;6.47;;
19605;SDS011;9950;50.168;8.210;2023-06-26T04:35:53;8.95;;;7.20;;
19605;SDS011;9950;50.168;8.210;2023-06-26T04:38:20;9.90;;;7.10;;
19605;SDS011;9950;50.168;8.210;2023-06-26T04:40:47;10.38;;;7.18;;
19605;SDS011;9950;50.168;8.210;2023-06-26T04:43:14;10.32;;;7.03;;
19605;SDS011;9950;50.168;8.210;2023-06-26T04:45:42;12.15;;;6.53;;
19605;SDS011;9950;50.168;8.210;2023-06-26T04:48:09;8.02;;;6.65;;
19605;SDS011;9950;50.168;8.210;2023-06-26T04:50:37;10.23;;;7.10;;
19605;SDS011;9950;50.168;8.210;2023-06-26T04:53:04;8.65;;;6.78;;
19605;SDS011;9950;50.168;8.210;2023-06-26T04:55:32;7.63;;;6.40;;
19605;SDS011;9950;50.168;8.210;2023-06-26T04:57:59;11.13;;;6.53;;
19605;SDS011;9950;50.168;8.210;2023-06-26T05:00:26;10.88;;;6.47;;
19605;SDS011;9950;50.168;8.210;2023-06-26T05:02:53;7.75;;;6.45;;
19605;SDS011;9950;50.168;8.210;2023-06-26T05:05:26;8.50;;;6.47;;
19605;SDS011;9950;50.168;8.210;2023-06-26T05:07:55;8.80;;;5.90;;
19605;SDS011;9950;50.168;8.210;2023-06-26T05:10:22;20.23;;;7.13;;
19605;SDS011;9950;50.168;8.210;2023-06-26T05:12:49;7.38;;;6.05;;
19605;SDS011;9950;50.168;8.210;2023-06-26T05:15:17;11.38;;;6.65;;
19605;SDS011;9950;50.168;8.210;2023-06-26T05:17:44;7.78;;;6.22;;
19605;SDS011;9950;50.168;8.210;2023-06-26T05:20:11;7.93;;;6.18;;
19605;SDS011;9950;50.168;8.210;2023-06-26T05:22:38;9.95;;;6.35;;
19605;SDS011;9950;50.168;8.210;2023-06-26T05:25:08;10.45;;;6.40;;
19605;SDS011;9950;50.168;8.210;2023-06-26T05:27:36;11.05;;;6.22;;
19605;SDS011;9950;50.168;8.210;2023-06-26T05:30:03;8.48;;;6.35;;
19605;SDS011;9950;50.168;8.210;2023-06-26T05:32:31;15.70;;;6.50;;
19605;SDS011;9950;50.168;8.210;2023-06-26T05:35:01;8.68;;;6.70;;
19605;SDS011;9950;50.168;8.210;2023-06-26T05:37:29;10.10;;;6.38;;
19605;SDS011;9950;50.168;8.210;2023-06-26T05:39:58;8.07;;;6.30;;
19605;SDS011;9950;50.168;8.210;2023-06-26T05:42:27;9.20;;;6.55;;
19605;SDS011;9950;50.168;8.210;2023-06-26T05:44:56;11.77;;;7.30;;
19605;SDS011;9950;50.168;8.210;2023-06-26T05:47:23;8.23;;;6.72;;
19605;SDS011;9950;50.168;8.210;2023-06-26T05:49:50;10.10;;;6.22;;
19605;SDS011;9950;50.168;8.210;2023-06-26T05:52:17;8.20;;;5.93;;
19605;SDS011;9950;50.168;8.210;2023-06-26T05:54:45;6.40;;;5.47;;
19605;SDS011;9950;50.168;8.210;2023-06-26T05:57:12;7.20;;;6.20;;
19605;SDS011;9950;50.168;8.210;2023-06-26T05:59:41;7.47;;;6.28;;
19605;SDS011;9950;50.168;8.210;2023-06-26T06:02:09;9.30;;;5.95;;
19605;SDS011;9950;50.168;8.210;2023-06-26T06:04:37;8.27;;;6.13;;
19605;SDS011;9950;50.168;8.210;2023-06-26T06:07:04;8.57;;;5.80;;
19605;SDS011;9950;50.168;8.210;2023-06-26T06:09:31;8.30;;;5.88;;
19605;SDS011;9950;50.168;8.210;2023-06-26T06:11:58;7.10;;;6.00;;
19605;SDS011;9950;50.168;8.210;2023-06-26T06:14:26;6.32;;;5.57;;
19605;SDS011;9950;50.168;8.210;2023-06-26T06:16:55;7.90;;;6.22;;
19605;SDS011;9950;50.168;8.210;2023-06-26T06:19:22;8.45;;;6.05;;
19605;SDS011;9950;50.168;8.210;2023-06-26T06:21:49;7.53;;;6.22;;
19605;SDS011;9950;50.168;8.210;2023-06-26T06:24:16;7.13;;;6.00;;
19605;SDS011;9950;50.168;8.210;2023-06-26T06:26:44;6.60;;;5.80;;
19605;SDS011;9950;50.168;8.210;2023-06-26T06:29:11;7.13;;;5.93;;
19605;SDS011;9950;50.168;8.210;2023-06-26T06:31:38;8.95;;;6.20;;
19605;SDS011;9950;50.168;8.210;2023-06-26T06:34:06;9.25;;;6.63;;
19605;SDS011;9950;50.168;8.210;2023-06-26T06:36:33;9.27;;;6.28;;
19605;SDS011;9950;50.168;8.210;2023-06-26T06:39:00;6.78;;;6.00;;
19605;SDS011;9950;50.168;8.210;2023-06-26T06:41:28;8.30;;;5.97;;
19605;SDS011;9950;50.168;8.210;2023-06-26T06:43:55;7.97;;;6.20;;
19605;SDS011;9950;50.168;8.210;2023-06-26T06:46:22;10.02;;;6.28;;
19605;SDS011;9950;50.168;8.210;2023-06-26T06:48:52;9.15;;;5.80;;
19605;SDS011;9950;50.168;8.210;2023-06-26T06:51:20;7.55;;;6.05;;
19605;SDS011;9950;50.168;8.210;2023-06-26T06:53:47;6.78;;;5.85;;
19605;SDS011;9950;50.168;8.210;2023-06-26T06:56:14;9.10;;;6.30;;
19605;SDS011;9950;50.168;8.210;2023-06-26T06:58:42;7.95;;;6.00;;
19605;SDS011;9950;50.168;8.210;2023-06-26T07:01:11;8.15;;;6.25;;
19605;SDS011;9950;50.168;8.210;2023-06-26T07:03:38;7.72;;;5.80;;
19605;SDS011;9950;50.168;8.210;2023-06-26T07:06:05;9.40;;;5.78;;
19605;SDS011;9950;50.168;8.210;2023-06-26T07:08:34;9.98;;;6.00;;
19605;SDS011;9950;50.168;8.210;2023-06-26T07:11:01;7.55;;;5.55;;
19605;SDS011;9950;50.168;8.210;2023-06-26T07:13:28;7.72;;;5.88;;
19605;SDS011;9950;50.168;8.210;2023-06-26T07:15:55;7.20;;;5.43;;
19605;SDS011;9950;50.168;8.210;2023-06-26T07:18:23;7.50;;;5.47;;
19605;SDS011;9950;50.168;8.210;2023-06-26T07:20:50;7.22;;;5.60;;
19605;SDS011;9950;50.168;8.210;2023-06-26T07:23:17;6.97;;;5.47;;
19605;SDS011;9950;50.168;8.210;2023-06-26T07:25:45;8.25;;;6.15;;
19605;SDS011;9950;50.168;8.210;2023-06-26T07:28:13;8.10;;;5.15;;
19605;SDS011;9950;50.168;8.210;2023-06-26T07:30:40;7.50;;;5.82;;
19605;SDS011;9950;50.168;8.210;2023-06-26T07:33:07;7.18;;;5.55;;
19605;SDS011;9950;50.168;8.210;2023-06-26T07:35:34;6.18;;;5.13;;
19605;SDS011;9950;50.168;8.210;2023-06-26T07:38:02;6.65;;;5.85;;
19605;SDS011;9950;50.168;8.210;2023-06-26T07:40:29;10.45;;;5.57;;
19605;SDS011;9950;50.168;8.210;2023-06-26T07:42:57;7.43;;;5.80;;
19605;SDS011;9950;50.168;8.210;2023-06-26T07:45:24;9.82;;;5.88;;
19605;SDS011;9950;50.168;8.210;2023-06-26T07:47:51;6.80;;;5.13;;
19605;SDS011;9950;50.168;8.210;2023-06-26T07:50:19;7.68;;;5.55;;
19605;SDS011;9950;50.168;8.210;2023-06-26T07:52:47;7.07;;;5.53;;
19605;SDS011;9950;50.168;8.210;2023-06-26T07:55:15;6.63;;;5.32;;
19605;SDS011;9950;50.168;8.210;2023-06-26T07:57:42;8.50;;;5.45;;
19605;SDS011;9950;50.168;8.210;2023-06-26T08:00:12;6.25;;;5.22;;
19605;SDS011;9950;50.168;8.210;2023-06-26T08:02:39;7.65;;;5.47;;
19605;SDS011;9950;50.168;8.210;2023-06-26T08:07:40;7.20;;;5.57;;
19605;SDS011;9950;50.168;8.210;2023-06-26T08:10:07;11.25;;;5.97;;
19605;SDS011;9950;50.168;8.210;2023-06-26T08:12:35;23.67;;;6.55;;
19605;SDS011;9950;50.168;8.210;2023-06-26T08:15:05;9.63;;;5.72;;
19605;SDS011;9950;50.168;8.210;2023-06-26T08:17:34;7.30;;;5.80;;
19605;SDS011;9950;50.168;8.210;2023-06-26T08:20:01;7.40;;;5.80;;
19605;SDS011;9950;50.168;8.210;2023-06-26T08:22:28;7.60;;;6.07;;
19605;SDS011;9950;50.168;8.210;2023-06-26T08:24:56;8.88;;;5.70;;
19605;SDS011;9950;50.168;8.210;2023-06-26T08:27:23;7.60;;;5.97;;
19605;SDS011;9950;50.168;8.210;2023-06-26T08:29:50;8.00;;;6.22;;
19605;SDS011;9950;50.168;8.210;2023-06-26T08:32:17;6.75;;;5.55;;
19605;SDS011;9950;50.168;8.210;2023-06-26T08:34:45;8.45;;;5.85;;
19605;SDS011;9950;50.168;8.210;2023-06-26T08:37:12;7.93;;;5.50;;
19605;SDS011;9950;50.168;8.210;2023-06-26T08:39:40;7.80;;;5.18;;
19605;SDS011;9950;50.168;8.210;2023-06-26T08:42:07;9.13;;;5.82;;
19605;SDS011;9950;50.168;8.210;2023-06-26T08:44:34;5.95;;;5.38;;
19605;SDS011;9950;50.168;8.210;2023-06-26T08:47:01;7.20;;;6.00;;
19605;SDS011;9950;50.168;8.210;2023-06-26T08:49:29;7.60;;;5.43;;
19605;SDS011;9950;50.168;8.210;2023-06-26T08:51:59;6.68;;;5.55;;
19605;SDS011;9950;50.168;8.210;2023-06-26T08:54:30;10.85;;;6.10;;
19605;SDS011;9950;50.168;8.210;2023-06-26T08:57:01;7.40;;;5.80;;
19605;SDS011;9950;50.168;8.210;2023-06-26T08:59:28;7.68;;;6.35;;
19605;SDS011;9950;50.168;8.210;2023-06-26T09:01:55;8.48;;;5.68;;
19605;SDS011;9950;50.168;8.210;2023-06-26T09:04:23;7.88;;;6.22;;
19605;SDS011;9950;50.168;8.210;2023-06-26T09:06:50;6.85;;;5.47;;
19605;SDS011;9950;50.168;8.210;2023-06-26T09:09:18;7.05;;;5.60;;
19605;SDS011;9950;50.168;8.210;2023-06-26T09:11:45;5.82;;;4.93;;
19605;SDS011;9950;50.168;8.210;2023-06-26T09:14:13;7.95;;;5.20;;
19605;SDS011;9950;50.168;8.210;2023-06-26T09:16:40;7.03;;;4.97;;
19605;SDS011;9950;50.168;8.210;2023-06-26T09:19:09;6.72;;;5.10;;
19605;SDS011;9950;50.168;8.210;2023-06-26T09:21:37;8.88;;;4.88;;
19605;SDS011;9950;50.168;8.210;2023-06-26T09:24:04;9.15;;;5.35;;
19605;SDS011;9950;50.168;8.210;2023-06-26T09:26:34;6.78;;;5.28;;
19605;SDS011;9950;50.168;8.210;2023-06-26T09:29:02;7.03;;;5.28;;
19605;SDS011;9950;50.168;8.210;2023-06-26T09:31:29;8.77;;;5.00;;
19605;SDS011;9950;50.168;8.210;2023-06-26T09:33:57;6.18;;;4.82;;
19605;SDS011;9950;50.168;8.210;2023-06-26T09:36:27;6.45;;;4.78;;
19605;SDS011;9950;50.168;8.210;2023-06-26T09:38:58;5.72;;;5.10;;
19605;SDS011;9950;50.168;8.210;2023-06-26T09:41:25;11.70;;;5.18;;
19605;SDS011;9950;50.168;8.210;2023-06-26T09:43:56;6.95;;;4.72;;
19605;SDS011;9950;50.168;8.210;2023-06-26T09:46:24;6.55;;;4.60;;
19605;SDS011;9950;50.168;8.210;2023-06-26T09:48:57;5.78;;;4.47;;
19605;SDS011;9950;50.168;8.210;2023-06-26T09:51:24;10.25;;;4.82;;
19605;SDS011;9950;50.168;8.210;2023-06-26T09:53:51;6.93;;;4.28;;
19605;SDS011;9950;50.168;8.210;2023-06-26T09:56:18;7.03;;;4.68;;
19605;SDS011;9950;50.168;8.210;2023-06-26T09:58:47;7.13;;;4.88;;
19605;SDS011;9950;50.168;8.210;2023-06-26T10:01:17;9.10;;;5.22;;
19605;SDS011;9950;50.168;8.210;2023-06-26T10:03:44;10.73;;;5.78;;
19605;SDS011;9950;50.168;8.210;2023-06-26T10:06:11;8.45;;;5.50;;
19605;SDS011;9950;50.168;8.210;2023-06-26T10:08:39;7.15;;;5.20;;
19605;SDS011;9950;50.168;8.210;2023-06-26T10:11:06;7.65;;;5.20;;
19605;SDS011;9950;50.168;8.210;2023-06-26T10:13:37;7.43;;;5.20;;
19605;SDS011;9950;50.168;8.210;2023-06-26T10:16:05;8.05;;;5.97;;
19605;SDS011;9950;50.168;8.210;2023-06-26T10:18:35;6.97;;;5.10;;
19605;SDS011;9950;50.168;8.210;2023-06-26T10:21:04;7.70;;;5.00;;
19605;SDS011;9950;50.168;8.210;2023-06-26T10:23:32;6.35;;;5.10;;
19605;SDS011;9950;50.168;8.210;2023-06-26T10:26:00;7.22;;;4.88;;
19605;SDS011;9950;50.168;8.210;2023-06-26T10:28:27;6.05;;;5.03;;
19605;SDS011;9950;50.168;8.210;2023-06-26T10:30:55;5.78;;;5.13;;
19605;SDS011;9950;50.168;8.210;2023-06-26T10:33:23;6.88;;;4.47;;
19605;SDS011;9950;50.168;8.210;2023-06-26T10:35:51;6.88;;;5.30;;
19605;SDS011;9950;50.168;8.210;2023-06-26T10:38:18;6.78;;;5.13;;
19605;SDS011;9950;50.168;8.210;2023-06-26T10:40:46;7.13;;;5.20;;
19605;SDS011;9950;50.168;8.210;2023-06-26T10:43:15;8.60;;;5.15;;
19605;SDS011;9950;50.168;8.210;2023-06-26T10:45:43;6.32;;;5.18;;
19605;SDS011;9950;50.168;8.210;2023-06-26T10:48:12;5.90;;;4.63;;
19605;SDS011;9950;50.168;8.210;2023-06-26T10:50:40;5.75;;;4.72;;
19605;SDS011;9950;50.168;8.210;2023-06-26T10:53:08;6.22;;;5.05;;
19605;SDS011;9950;50.168;8.210;2023-06-26T10:55:36;8.27;;;5.22;;
19605;SDS011;9950;50.168;8.210;2023-06-26T10:58:03;6.38;;;4.93;;
19605;SDS011;9950;50.168;8.210;2023-06-26T11:00:30;6.55;;;4.93;;
19605;SDS011;9950;50.168;8.210;2023-06-26T11:02:58;7.72;;;5.00;;
19605;SDS011;9950;50.168;8.210;2023-06-26T11:05:26;6.00;;;4.95;;
19605;SDS011;9950;50.168;8.210;2023-06-26T11:08:03;10.05;;;5.40;;
19605;SDS011;9950;50.168;8.210;2023-06-26T11:10:41;8.07;;;5.43;;
19605;SDS011;9950;50.168;8.210;2023-06-26T11:13:15;7.13;;;5.28;;
19605;SDS011;9950;50.168;8.210;2023-06-26T11:15:43;7.60;;;5.45;;
19605;SDS011;9950;50.168;8.210;2023-06-26T11:18:10;6.68;;;5.25;;
19605;SDS011;9950;50.168;8.210;2023-06-26T11:20:37;6.53;;;5.07;;
19605;SDS011;9950;50.168;8.210;2023-06-26T11:23:05;8.88;;;4.90;;
19605;SDS011;9950;50.168;8.210;2023-06-26T11:25:34;8.80;;;5.03;;
19605;SDS011;9950;50.168;8.210;2023-06-26T11:28:03;9.02;;;5.40;;
19605;SDS011;9950;50.168;8.210;2023-06-26T11:30:30;8.80;;;5.10;;
19605;SDS011;9950;50.168;8.210;2023-06-26T11:33:04;7.90;;;5.20;;
19605;SDS011;9950;50.168;8.210;2023-06-26T11:35:31;5.88;;;5.15;;
19605;SDS011;9950;50.168;8.210;2023-06-26T11:37:58;7.88;;;5.55;;
19605;SDS011;9950;50.168;8.210;2023-06-26T11:40:29;9.77;;;5.50;;
19605;SDS011;9950;50.168;8.210;2023-06-26T11:42:57;10.77;;;5.50;;
19605;SDS011;9950;50.168;8.210;2023-06-26T11:45:26;7.60;;;5.30;;
19605;SDS011;9950;50.168;8.210;2023-06-26T11:47:55;8.75;;;5.63;;
19605;SDS011;9950;50.168;8.210;2023-06-26T11:50:22;5.85;;;5.25;;
19605;SDS011;9950;50.168;8.210;2023-06-26T11:52:53;7.40;;;5.35;;
19605;SDS011;9950;50.168;8.210;2023-06-26T11:55:21;9.02;;;5.65;;
19605;SDS011;9950;50.168;8.210;2023-06-26T11:57:48;8.20;;;5.38;;
19605;SDS011;9950;50.168;8.210;2023-06-26T12:00:16;6.20;;;4.72;;
19605;SDS011;9950;50.168;8.210;2023-06-26T12:02:45;6.72;;;4.72;;
19605;SDS011;9950;50.168;8.210;2023-06-26T12:05:12;9.05;;;5.40;;
19605;SDS011;9950;50.168;8.210;2023-06-26T12:07:40;7.85;;;5.68;;
19605;SDS011;9950;50.168;8.210;2023-06-26T12:10:08;10.43;;;4.82;;
19605;SDS011;9950;50.168;8.210;2023-06-26T12:12:36;8.48;;;5.38;;
19605;SDS011;9950;50.168;8.210;2023-06-26T12:15:04;7.22;;;4.88;;
19605;SDS011;9950;50.168;8.210;2023-06-26T12:17:32;9.48;;;4.75;;
19605;SDS011;9950;50.168;8.210;2023-06-26T12:20:00;8.43;;;4.80;;
19605;SDS011;9950;50.168;8.210;2023-06-26T12:22:33;10.48;;;4.85;;
19605;SDS011;9950;50.168;8.210;2023-06-26T12:25:00;6.20;;;4.85;;
19605;SDS011;9950;50.168;8.210;2023-06-26T12:27:27;7.35;;;4.53;;
19605;SDS011;9950;50.168;8.210;2023-06-26T12:29:54;6.63;;;4.80;;
19605;SDS011;9950;50.168;8.210;2023-06-26T12:32:22;6.25;;;4.55;;
19605;SDS011;9950;50.168;8.210;2023-06-26T12:34:50;12.70;;;4.97;;
19605;SDS011;9950;50.168;8.210;2023-06-26T12:37:19;5.80;;;4.65;;
19605;SDS011;9950;50.168;8.210;2023-06-26T12:39:47;6.20;;;3.90;;
19605;SDS011;9950;50.168;8.210;2023-06-26T12:42:14;6.60;;;4.75;;
19605;SDS011;9950;50.168;8.210;2023-06-26T12:44:42;7.80;;;3.92;;
19605;SDS011;9950;50.168;8.210;2023-06-26T12:47:09;5.57;;;3.70;;
19605;SDS011;9950;50.168;8.210;2023-06-26T12:49:38;6.40;;;4.40;;
19605;SDS011;9950;50.168;8.210;2023-06-26T12:52:07;6.32;;;4.05;;
19605;SDS011;9950;50.168;8.210;2023-06-26T12:54:36;7.03;;;4.18;;
19605;SDS011;9950;50.168;8.210;2023-06-26T12:57:04;7.57;;;3.78;;
19605;SDS011;9950;50.168;8.210;2023-06-26T12:59:31;6.18;;;3.90;;
19605;SDS011;9950;50.168;8.210;2023-06-26T13:01:58;7.90;;;4.05;;
19605;SDS011;9950;50.168;8.210;2023-06-26T13:04:25;6.60;;;3.38;;
19605;SDS011;9950;50.168;8.210;2023-06-26T13:06:53;4.55;;;3.25;;
19605;SDS011;9950;50.168;8.210;2023-06-26T13:09:20;8.95;;;4.05;;
19605;SDS011;9950;50.168;8.210;2023-06-26T13:11:48;6.07;;;2.90;;
19605;SDS011;9950;50.168;8.210;2023-06-26T13:14:15;5.80;;;3.65;;
19605;SDS011;9950;50.168;8.210;2023-06-26T13:16:43;7.43;;;3.35;;
19605;SDS011;9950;50.168;8.210;2023-06-26T13:19:10;8.07;;;3.78;;
19605;SDS011;9950;50.168;8.210;2023-06-26T13:21:37;3.60;;;2.88;;
19605;SDS011;9950;50.168;8.210;2023-06-26T13:24:05;8.52;;;3.45;;
19605;SDS011;9950;50.168;8.210;2023-06-26T13:26:32;6.40;;;3.30;;
19605;SDS011;9950;50.168;8.210;2023-06-26T13:29:00;7.22;;;3.15;;
19605;SDS011;9950;50.168;8.210;2023-06-26T13:31:28;7.43;;;3.10;;
19605;SDS011;9950;50.168;8.210;2023-06-26T13:33:56;6.88;;;3.30;;
19605;SDS011;9950;50.168;8.210;2023-06-26T13:36:24;6.18;;;3.22;;
19605;SDS011;9950;50.168;8.210;2023-06-26T13:38:51;5.00;;;2.63;;
19605;SDS011;9950;50.168;8.210;2023-06-26T13:41:20;6.75;;;3.08;;
19605;SDS011;9950;50.168;8.210;2023-06-26T13:43:48;10.15;;;2.60;;
19605;SDS011;9950;50.168;8.210;2023-06-26T13:46:16;5.38;;;3.10;;
19605;SDS011;9950;50.168;8.210;2023-06-26T13:48:43;3.78;;;2.38;;
19605;SDS011;9950;50.168;8.210;2023-06-26T13:51:11;4.70;;;2.25;;
19605;SDS011;9950;50.168;8.210;2023-06-26T13:53:38;4.88;;;2.60;;
19605;SDS011;9950;50.168;8.210;2023-06-26T13:56:05;4.60;;;2.25;;
19605;SDS011;9950;50.168;8.210;2023-06-26T13:58:34;5.22;;;2.50;;
19605;SDS011;9950;50.168;8.210;2023-06-26T14:01:01;3.97;;;2.33;;
19605;SDS011;9950;50.168;8.210;2023-06-26T14:03:30;3.70;;;2.03;;
19605;SDS011;9950;50.168;8.210;2023-06-26T14:05:57;5.65;;;2.20;;
19605;SDS011;9950;50.168;8.210;2023-06-26T14:08:24;5.18;;;2.55;;
19605;SDS011;9950;50.168;8.210;2023-06-26T14:10:51;5.95;;;2.30;;
19605;SDS011;9950;50.168;8.210;2023-06-26T14:13:18;4.18;;;2.00;;
19605;SDS011;9950;50.168;8.210;2023-06-26T14:15:46;4.30;;;2.15;;
19605;SDS011;9950;50.168;8.210;2023-06-26T14:18:13;8.88;;;2.60;;
19605;SDS011;9950;50.168;8.210;2023-06-26T14:20:41;6.15;;;2.15;;
19605;SDS011;9950;50.168;8.210;2023-06-26T14:23:08;5.10;;;2.10;;
19605;SDS011;9950;50.168;8.210;2023-06-26T14:25:35;3.90;;;2.28;;
19605;SDS011;9950;50.168;8.210;2023-06-26T14:28:02;3.95;;;2.00;;
19605;SDS011;9950;50.168;8.210;2023-06-26T14:30:29;8.30;;;1.98;;
19605;SDS011;9950;50.168;8.210;2023-06-26T14:32:57;4.93;;;1.75;;
19605;SDS011;9950;50.168;8.210;2023-06-26T14:35:24;4.25;;;1.88;;
19605;SDS011;9950;50.168;8.210;2023-06-26T14:37:52;6.75;;;1.85;;
19605;SDS011;9950;50.168;8.210;2023-06-26T14:40:19;4.05;;;1.80;;
19605;SDS011;9950;50.168;8.210;2023-06-26T14:42:46;5.85;;;1.90;;
19605;SDS011;9950;50.168;8.210;2023-06-26T14:45:14;3.97;;;1.98;;
19605;SDS011;9950;50.168;8.210;2023-06-26T14:47:41;4.70;;;1.90;;
19605;SDS011;9950;50.168;8.210;2023-06-26T14:50:08;4.20;;;2.03;;
19605;SDS011;9950;50.168;8.210;2023-06-26T14:52:35;3.53;;;1.70;;
19605;SDS011;9950;50.168;8.210;2023-06-26T14:55:04;3.17;;;1.80;;
19605;SDS011;9950;50.168;8.210;2023-06-26T14:57:31;6.10;;;1.80;;
19605;SDS011;9950;50.168;8.210;2023-06-26T14:59:59;4.65;;;1.60;;
19605;SDS011;9950;50.168;8.210;2023-06-26T15:02:26;4.63;;;1.60;;
19605;SDS011;9950;50.168;8.210;2023-06-26T15:04:53;4.18;;;1.60;;